Saint-Sauveur, Quebec

3:52 AM EDT on July 25, 2016 (GMT -0400)
Saint-Sauveur | | Change Station

Elev 920 ft 45.88 °N, 74.19 °W | Updated 6 minutes ago

Mostly Cloudy
Mostly Cloudy
59.5 °F
Feels Like 59.5 °F
N
0.0
Wind Variable Wind from NNE

Today
High -- | Low -- °F
--% Chance of Precip.
Yesterday
High -- | Low -- °F
Precip. -- in
Pressure 29.93 in
Visibility 25.0 miles
Clouds Mostly Cloudy 12000 ft
Dew Point 57 °F
Humidity 92%
Rainfall 0.00 in
Snow Depth Not available.
5:31 AM 8:33 PM
Waning Gibbous, 68% visible
METAR CYMX 250700Z 00000KT 25SM BKN120 17/16 A2992 RMK AC6 SLP134 DENSITY ALT 500FT
Pressure 29.93 in
Visibility 25.0 miles
Clouds Mostly Cloudy 12000 ft
Dew Point 57 °F
Humidity 92%
Rainfall 0.00 in
Snow Depth Not available.
5:31 AM 8:33 PM
Waning Gibbous, 68% visible
METAR CYMX 250700Z 00000KT 25SM BKN120 17/16 A2992 RMK AC6 SLP134 DENSITY ALT 500FT

10-Day Weather Forecast

Almanac

Astronomy

Jul. 25, 2016 Rise Set
Actual Time
Civil Twilight
Nautical Twilight
Astronomical Twilight
Moon
Length of Visible Light
Length of Day
Tomorrow will be .
, % of the Moon is Illuminated

Today's Extremes

Country Highs Country Lows

Community

WunderPhotos

Upload Photos

1,927,274 photos uploaded!

WunderBlog® & News

Nearby

Air Quality

  Air Quality AQ Index Pollutant
Not available.

Snow Depth

Station Depth Elevation

Earthquake Activity

City Distance Mag. Time & Date
Minimum magnitude displayed is 2.5.

Coastal Water Temperatures

Place Temperature

Stations

Nearby Weather Stations

Station Location Temp. Windchill Dew Point Humidity Wind Precip. Elev Updated Type
                   

Watches & Warnings

There are currently no watches in effect.